createdAt,value
2019-04-01T00:02:38.502Z,-1.27
2019-04-01T00:06:41.877Z,-1.21
2019-04-01T00:10:44.340Z,-1.28
2019-04-01T00:14:48.070Z,-1.08
2019-04-01T00:19:02.504Z,-1.14
2019-04-01T00:22:54.421Z,-1.22
2019-04-01T00:26:56.814Z,-1.16
2019-04-01T00:30:59.003Z,-1.01
2019-04-01T00:35:01.292Z,-1.10
2019-04-01T00:39:05.137Z,-1.21
2019-04-01T00:43:21.077Z,-0.97
2019-04-01T00:47:23.314Z,-0.57
2019-04-01T00:51:25.771Z,-0.76
2019-04-01T00:55:28.185Z,-1.04
2019-04-01T00:59:30.729Z,-1.12
2019-04-01T01:03:36.233Z,-1.19
2019-04-01T01:07:38.759Z,-1.02
2019-04-01T01:11:41.035Z,-1.18
2019-04-01T01:15:43.350Z,-1.30
2019-04-01T01:19:45.510Z,-1.29
2019-04-01T01:23:47.979Z,-1.25
2019-04-01T01:27:50.166Z,-1.19
2019-04-01T01:31:52.808Z,-1.36
2019-04-01T01:35:55.104Z,-1.21
2019-04-01T01:39:58.851Z,-1.21
2019-04-01T01:44:01.063Z,-1.26
2019-04-01T01:48:03.393Z,-1.32
2019-04-01T01:52:05.762Z,-1.33
2019-04-01T01:56:08.125Z,-1.02
2019-04-01T02:00:11.807Z,-1.41
2019-04-01T02:04:14.084Z,-1.55
2019-04-01T02:08:16.269Z,-1.61
2019-04-01T02:12:18.846Z,-1.48
2019-04-01T02:16:21.251Z,-1.64
2019-04-01T02:20:23.532Z,-1.76
2019-04-01T02:24:25.959Z,-1.81
2019-04-01T02:28:29.609Z,-1.85
2019-04-01T02:32:33.175Z,-1.97
2019-04-01T02:36:35.735Z,-2.04
2019-04-01T02:40:38.052Z,-1.95
2019-04-01T02:44:40.527Z,-2.06
2019-04-01T02:48:43.001Z,-2.08
2019-04-01T02:52:47.657Z,-1.87
2019-04-01T02:56:49.873Z,-2.02
2019-04-01T03:00:52.298Z,-2.10
2019-04-01T03:04:54.463Z,-2.10
2019-04-01T03:08:56.765Z,-2.35
2019-04-01T03:12:59.012Z,-2.60
2019-04-01T03:17:01.385Z,-2.74
2019-04-01T03:21:03.618Z,-2.46
2019-04-01T03:25:05.930Z,-2.76
2019-04-01T03:29:08.185Z,-2.71
2019-04-01T03:33:11.303Z,-2.74
2019-04-01T03:37:13.644Z,-2.87
2019-04-01T03:41:15.921Z,-2.90
2019-04-01T03:45:18.135Z,-2.63
2019-04-01T03:49:20.393Z,-2.40
2019-04-01T03:53:22.611Z,-2.15
2019-04-01T03:57:25.925Z,-2.00
2019-04-01T04:01:30.601Z,-2.06
2019-04-01T04:05:32.281Z,-2.23
2019-04-01T04:09:34.484Z,-1.95
2019-04-01T04:13:36.894Z,-1.94
2019-04-01T04:17:39.088Z,-1.97
2019-04-01T04:21:42.360Z,-1.91
2019-04-01T04:25:44.555Z,-1.88
2019-04-01T04:29:47.193Z,-1.96
2019-04-01T04:33:49.485Z,-1.92
2019-04-01T04:37:53.575Z,-1.67
2019-04-01T04:41:55.792Z,-1.70
2019-04-01T04:45:58.109Z,-1.51
2019-04-01T04:50:00.422Z,-1.45
2019-04-01T04:54:02.900Z,-1.25
2019-04-01T04:58:05.387Z,-1.13
2019-04-01T05:02:07.897Z,-0.95
2019-04-01T05:06:10.132Z,-0.69
2019-04-01T05:10:12.923Z,-0.56
2019-04-01T05:14:15.106Z,-0.43
2019-04-01T05:18:17.380Z,-0.26
2019-04-01T05:22:22.494Z,-0.10
2019-04-01T05:26:26.062Z,0.05
2019-04-01T05:30:29.685Z,0.18
2019-04-01T05:34:33.500Z,0.33
2019-04-01T05:38:35.826Z,0.43
2019-04-01T05:42:38.693Z,0.61
2019-04-01T05:46:40.962Z,0.73
2019-04-01T05:50:43.394Z,0.79
2019-04-01T05:54:45.883Z,0.97
2019-04-01T05:58:48.241Z,1.03
2019-04-01T06:02:50.513Z,1.00
2019-04-01T06:06:53.091Z,1.18
2019-04-01T06:10:55.594Z,1.28
2019-04-01T06:14:57.937Z,1.34
2019-04-01T06:19:00.246Z,1.33
2019-04-01T06:23:02.672Z,1.47
2019-04-01T06:27:04.964Z,1.60
2019-04-01T06:31:07.436Z,1.64
2019-04-01T06:35:09.846Z,1.85
2019-04-01T06:39:12.140Z,2.01
2019-04-01T06:43:14.545Z,1.90
2019-04-01T06:47:17.055Z,2.06
2019-04-01T06:51:19.222Z,2.13
2019-04-01T06:55:21.460Z,2.28
2019-04-01T06:59:23.930Z,2.29
2019-04-01T07:03:26.562Z,2.46
2019-04-01T07:07:29.188Z,2.49
2019-04-01T07:11:31.611Z,2.63
2019-04-01T07:15:33.957Z,2.51
2019-04-01T07:19:36.220Z,2.76
2019-04-01T07:23:38.388Z,2.89
2019-04-01T07:27:40.729Z,2.90
2019-04-01T07:31:42.974Z,2.86
2019-04-01T07:35:46.793Z,2.88
2019-04-01T07:39:49.380Z,2.89
2019-04-01T07:43:51.811Z,3.11
2019-04-01T07:47:54.711Z,3.27
2019-04-01T07:51:58.933Z,3.32
2019-04-01T07:56:02.741Z,3.28
2019-04-01T08:00:05.635Z,3.41
2019-04-01T08:04:07.929Z,3.27
2019-04-01T08:08:10.300Z,3.53
2019-04-01T08:12:12.495Z,3.64
2019-04-01T08:16:14.853Z,3.67
2019-04-01T08:20:17.237Z,3.67
2019-04-01T08:24:19.554Z,3.93
2019-04-01T08:28:23.786Z,4.01
2019-04-01T08:32:25.734Z,4.03
2019-04-01T08:36:27.915Z,4.14
2019-04-01T08:40:30.353Z,4.14
2019-04-01T08:44:32.666Z,4.10
2019-04-01T08:48:35.715Z,4.19
2019-04-01T08:52:38.172Z,4.23
2019-04-01T08:56:40.705Z,4.35
2019-04-01T09:00:42.926Z,4.41
2019-04-01T09:04:46.046Z,4.29
2019-04-01T09:08:48.696Z,4.52
2019-04-01T09:12:51.891Z,4.99
2019-04-01T09:16:54.601Z,4.86
2019-04-01T09:20:58.088Z,4.86
2019-04-01T09:25:00.448Z,4.76
2019-04-01T09:29:02.715Z,4.93
2019-04-01T09:33:05.026Z,4.87
2019-04-01T09:37:07.277Z,4.81
2019-04-01T09:41:13.091Z,5.01
2019-04-01T09:45:13.956Z,5.02
2019-04-01T09:49:16.115Z,5.00
2019-04-01T09:53:19.552Z,5.10
2019-04-01T09:57:21.878Z,5.06
2019-04-01T10:01:24.447Z,5.46
2019-04-01T10:05:26.751Z,5.55
2019-04-01T10:09:29.001Z,5.68
2019-04-01T10:13:31.175Z,5.79
2019-04-01T10:17:33.523Z,5.92
2019-04-01T10:21:35.818Z,5.95
2019-04-01T10:25:38.250Z,5.70
2019-04-01T10:29:40.426Z,5.96
2019-04-01T10:33:42.807Z,6.06
2019-04-01T10:37:48.019Z,6.19
2019-04-01T10:41:50.361Z,6.05
2019-04-01T10:45:52.537Z,6.05
2019-04-01T10:49:54.811Z,6.16
2019-04-01T10:53:57.049Z,6.14
2019-04-01T10:58:00.518Z,5.90
2019-04-01T11:02:02.780Z,6.13
2019-04-01T11:06:05.638Z,6.16
2019-04-01T11:10:11.417Z,6.25
2019-04-01T11:14:12.339Z,6.32
2019-04-01T11:18:14.534Z,6.38
2019-04-01T11:22:17.015Z,6.43
2019-04-01T11:26:19.191Z,6.30
2019-04-01T11:30:21.817Z,6.49
2019-04-01T11:34:24.074Z,6.52
2019-04-01T11:38:26.580Z,6.62
2019-04-01T11:42:28.913Z,6.67
2019-04-01T11:46:31.402Z,6.72
2019-04-01T11:50:33.635Z,6.83
2019-04-01T11:54:35.940Z,6.72
2019-04-01T11:58:38.522Z,6.79
2019-04-01T12:02:41.206Z,6.80
2019-04-01T12:06:43.369Z,7.02
2019-04-01T12:10:45.693Z,6.99
2019-04-01T12:14:48.296Z,6.97
2019-04-01T12:18:50.620Z,6.75
2019-04-01T12:22:52.779Z,6.92
2019-04-01T12:26:55.090Z,6.97
2019-04-01T12:30:57.410Z,6.91
2019-04-01T12:34:59.799Z,7.19
2019-04-01T12:39:02.342Z,7.32
2019-04-01T12:43:06.233Z,7.14
2019-04-01T12:47:08.566Z,7.18
2019-04-01T12:51:10.956Z,7.44
2019-04-01T12:55:13.539Z,7.28
2019-04-01T12:59:15.825Z,7.05
2019-04-01T13:03:18.700Z,7.39
2019-04-01T13:07:21.090Z,7.07
2019-04-01T13:11:23.295Z,7.08
2019-04-01T13:15:27.441Z,7.23
2019-04-01T13:19:29.655Z,7.25
2019-04-01T13:23:31.935Z,7.09
2019-04-01T13:27:34.154Z,7.01
2019-04-01T13:31:36.440Z,7.13
2019-04-01T13:35:39.921Z,7.08
2019-04-01T13:39:42.337Z,6.93
2019-04-01T13:43:44.651Z,6.97
2019-04-01T13:47:47.081Z,6.93
2019-04-01T13:51:52.236Z,6.98
2019-04-01T13:55:54.495Z,7.00
2019-04-01T13:59:56.760Z,6.94
2019-04-01T14:03:59.071Z,6.98
2019-04-01T14:08:01.370Z,6.93
2019-04-01T14:12:05.249Z,7.07
2019-04-01T14:16:09.152Z,6.99
2019-04-01T14:20:11.984Z,7.10
2019-04-01T14:24:15.252Z,7.29
2019-04-01T14:28:19.380Z,7.21
2019-04-01T14:32:21.688Z,7.25
2019-04-01T14:36:23.982Z,7.07
2019-04-01T14:40:26.305Z,7.16
2019-04-01T14:44:28.663Z,6.97
2019-04-01T14:48:31.001Z,7.06
2019-04-01T14:52:33.273Z,6.79
2019-04-01T14:56:35.467Z,6.82
2019-04-01T15:00:37.926Z,8.10
2019-04-01T15:04:40.204Z,9.78
2019-04-01T15:08:42.768Z,10.28
2019-04-01T15:12:45.210Z,9.61
2019-04-01T15:16:47.583Z,8.93
2019-04-01T15:20:49.921Z,9.04
2019-04-01T15:24:52.776Z,9.92
2019-04-01T15:28:55.208Z,10.67
2019-04-01T15:32:57.529Z,10.38
2019-04-01T15:36:59.797Z,10.14
2019-04-01T15:41:02.359Z,9.35
2019-04-01T15:45:06.110Z,8.28
2019-04-01T15:49:11.308Z,7.72
2019-04-01T15:53:12.828Z,6.61
2019-04-01T15:57:15.482Z,6.02
2019-04-01T16:01:17.755Z,6.07
2019-04-01T16:05:20.055Z,5.77
2019-04-01T16:09:23.271Z,5.10
2019-04-01T16:13:25.938Z,4.87
2019-04-01T16:17:28.217Z,4.57
2019-04-01T16:21:31.520Z,4.51
2019-04-01T16:25:37.431Z,4.41
2019-04-01T16:29:38.341Z,4.20
2019-04-01T16:33:40.629Z,4.09
2019-04-01T16:37:42.950Z,3.98
2019-04-01T16:41:46.701Z,3.84
2019-04-01T16:45:49.256Z,3.65
2019-04-01T16:49:51.595Z,3.61
2019-04-01T16:53:56.104Z,3.50
2019-04-01T16:57:57.975Z,3.51
2019-04-01T17:02:00.513Z,3.21
2019-04-01T17:06:02.735Z,3.05
2019-04-01T17:10:06.764Z,2.93
2019-04-01T17:14:09.608Z,2.92
2019-04-01T17:18:12.087Z,2.85
2019-04-01T17:22:14.300Z,2.70
2019-04-01T17:26:16.913Z,2.51
2019-04-01T17:30:19.630Z,2.24
2019-04-01T17:34:21.967Z,2.24
2019-04-01T17:38:24.271Z,2.18
2019-04-01T17:42:26.746Z,1.78
2019-04-01T17:46:28.987Z,1.57
2019-04-01T17:50:31.409Z,1.27
2019-04-01T17:54:33.938Z,1.00
2019-04-01T17:58:36.492Z,0.86
2019-04-01T18:02:38.666Z,0.74
2019-04-01T18:06:41.086Z,0.64
2019-04-01T18:10:43.680Z,0.71
2019-04-01T18:14:46.237Z,0.68
2019-04-01T18:18:49.527Z,0.70
2019-04-01T18:22:51.837Z,0.74
2019-04-01T18:26:54.071Z,0.95
2019-04-01T18:30:56.625Z,0.95
2019-04-01T18:34:59.082Z,0.96
2019-04-01T18:39:03.951Z,1.04
2019-04-01T18:43:06.283Z,0.89
2019-04-01T18:47:08.582Z,0.75
2019-04-01T18:51:10.967Z,0.53
2019-04-01T18:55:14.347Z,0.57
2019-04-01T18:59:16.553Z,0.77
2019-04-01T19:03:18.933Z,0.73
2019-04-01T19:07:21.977Z,0.83
2019-04-01T19:11:24.561Z,0.68
2019-04-01T19:15:27.788Z,0.36
2019-04-01T19:19:30.654Z,0.15
2019-04-01T19:27:33.565Z,0.08
2019-04-01T19:31:35.762Z,-0.08
2019-04-01T19:35:39.085Z,-0.26
2019-04-01T19:39:41.349Z,-0.47
2019-04-01T19:43:45.109Z,-0.60
2019-04-01T19:47:47.505Z,-0.60
2019-04-01T19:51:49.808Z,-0.64
2019-04-01T19:55:52.025Z,-0.71
2019-04-01T19:59:54.725Z,-0.69
2019-04-01T20:03:57.162Z,-0.70
2019-04-01T20:07:59.425Z,-0.65
2019-04-01T20:12:01.641Z,-0.77
2019-04-01T20:16:03.987Z,-0.84
2019-04-01T20:20:07.080Z,-1.02
2019-04-01T20:24:09.423Z,-1.17
2019-04-01T20:28:12.998Z,-1.28
2019-04-01T20:32:17.565Z,-1.36
2019-04-01T20:36:28.572Z,-1.46
2019-04-01T20:40:25.361Z,-1.56
2019-04-01T20:44:28.562Z,-1.67
2019-04-01T20:48:33.265Z,-1.68
2019-04-01T20:52:35.891Z,-1.70
2019-04-01T20:56:38.154Z,-1.67
2019-04-01T21:00:40.462Z,-1.72
2019-04-01T21:04:42.753Z,-1.76
2019-04-01T21:08:44.957Z,-1.80
2019-04-01T21:12:47.226Z,-1.74
2019-04-01T21:16:49.402Z,-1.83
2019-04-01T21:20:51.681Z,-1.98
2019-04-01T21:24:53.879Z,-2.05
2019-04-01T21:28:56.194Z,-2.15
2019-04-01T21:32:58.403Z,-2.20
2019-04-01T21:37:03.435Z,-2.13
2019-04-01T21:41:05.765Z,-2.06
2019-04-01T21:45:09.371Z,-2.05
2019-04-01T21:49:11.876Z,-2.05
2019-04-01T21:53:14.173Z,-2.04
2019-04-01T21:57:16.391Z,-2.09
2019-04-01T22:01:18.782Z,-2.09
2019-04-01T22:05:21.166Z,-2.13
2019-04-01T22:09:23.508Z,-2.20
2019-04-01T22:13:26.392Z,-2.22
2019-04-01T22:17:29.750Z,-2.18
2019-04-01T22:21:34.540Z,-2.14
2019-04-01T22:25:36.258Z,-2.16
2019-04-01T22:29:38.462Z,-2.16
2019-04-01T22:33:40.995Z,-2.32
2019-04-01T22:37:44.325Z,-2.40
2019-04-01T22:41:46.789Z,-2.50
2019-04-01T22:45:49.619Z,-2.57
2019-04-01T22:49:52.054Z,-2.63
2019-04-01T22:53:54.264Z,-2.71
2019-04-01T22:57:57.060Z,-2.72
2019-04-01T23:01:59.596Z,-2.80
2019-04-01T23:06:02.869Z,-2.88
2019-04-01T23:10:05.827Z,-2.88
2019-04-01T23:14:09.120Z,-2.91
2019-04-01T23:18:11.349Z,-2.92
2019-04-01T23:22:14.011Z,-2.94
2019-04-01T23:26:16.204Z,-2.97
2019-04-01T23:30:19.354Z,-2.89
2019-04-01T23:34:22.568Z,-2.88
2019-04-01T23:38:25.159Z,-2.88
2019-04-01T23:42:28.222Z,-2.78
2019-04-01T23:46:31.914Z,-2.75
2019-04-01T23:50:34.135Z,-2.64
2019-04-01T23:54:36.466Z,-2.68
2019-04-01T23:58:38.682Z,-2.69
